Terminal Aerodrome Forecast
Issued by NWS

Home | Current Version | Previous Version | Text Only | Print | Product List | Glossary On
Versions: 1 2 3 4 5 6 7 8 9 10 11 12 13 14 15 16
000
FTUS43 KMQT 290746 AAA
TAFCMX
TAF AMD
KCMX 290746Z 2908/3006 29015KT P6SM VCSH SCT015 BKN080
      TEMPO 2908/2910 5SM -SHRA BKN015 OVC030
     FM291000 VRB06KT P6SM VCSH BKN025
     FM291200 24007KT P6SM SCT025 BKN090
     FM291400 25008KT P6SM SCT070
     FM292200 29004KT P6SM FEW200=

USA.gov is the U.S. government's official web portal to all federal, state and local government web resources and services.